sensor_id;sensor_type;location;lat;lon;timestamp;pressure;altitude;pressure_sealevel;temperature;humidity
53635;BME280;39542;-34.932;138.594;2023-04-27T11:05:19;100701.15;;;22.22;58.41
53635;BME280;39542;-34.932;138.594;2023-04-27T11:06:02;100700.64;;;22.25;58.25
53635;BME280;39542;-34.932;138.594;2023-04-27T11:06:44;100701.07;;;22.33;58.09
53635;BME280;39542;-34.932;138.594;2023-04-27T11:07:26;100700.58;;;22.41;57.95
53635;BME280;39542;-34.932;138.594;2023-04-27T11:08:18;100700.55;;;22.44;57.86
53635;BME280;39542;-34.932;138.594;2023-04-27T11:08:52;100701.05;;;22.43;57.85
53635;BME280;39542;-34.932;138.594;2023-04-27T11:09:28;100702.08;;;22.41;57.85
53635;BME280;39542;-34.932;138.594;2023-04-27T11:10:03;100704.22;;;22.40;57.86
53635;BME280;39542;-34.932;138.594;2023-04-27T11:10:42;100704.87;;;22.37;57.96
53635;BME280;39542;-34.932;138.594;2023-04-27T11:11:17;100704.42;;;22.36;57.97
53635;BME280;39542;-34.932;138.594;2023-04-27T11:11:51;100703.78;;;22.32;58.03
53635;BME280;39542;-34.932;138.594;2023-04-27T11:12:25;100705.38;;;22.32;58.07
53635;BME280;39542;-34.932;138.594;2023-04-27T11:13:05;100707.42;;;22.32;58.10
53635;BME280;39542;-34.932;138.594;2023-04-27T11:13:41;100707.24;;;22.29;58.13
53635;BME280;39542;-34.932;138.594;2023-04-27T11:14:20;100709.45;;;22.28;58.14
53635;BME280;39542;-34.932;138.594;2023-04-27T11:14:59;100707.23;;;22.28;58.20
53635;BME280;39542;-34.932;138.594;2023-04-27T11:15:44;100708.25;;;22.29;58.15
53635;BME280;39542;-34.932;138.594;2023-04-27T11:16:19;100710.10;;;22.27;58.19
53635;BME280;39542;-34.932;138.594;2023-04-27T11:16:54;100711.36;;;22.27;58.20
53635;BME280;39542;-34.932;138.594;2023-04-27T11:17:32;100710.84;;;22.27;58.22
53635;BME280;39542;-34.932;138.594;2023-04-27T11:18:07;100710.02;;;22.27;58.21
53635;BME280;39542;-34.932;138.594;2023-04-27T11:18:43;100708.77;;;22.26;58.22
53635;BME280;39542;-34.932;138.594;2023-04-27T11:19:17;100710.41;;;22.25;58.20
53635;BME280;39542;-34.932;138.594;2023-04-27T11:19:51;100707.93;;;22.25;58.24
53635;BME280;39542;-34.932;138.594;2023-04-27T11:20:29;100708.87;;;22.27;58.20
53635;BME280;39542;-34.932;138.594;2023-04-27T11:21:09;100708.53;;;22.26;58.22
53635;BME280;39542;-34.932;138.594;2023-04-27T11:21:45;100708.53;;;22.26;58.23
53635;BME280;39542;-34.932;138.594;2023-04-27T11:22:19;100709.00;;;22.26;58.20
53635;BME280;39542;-34.932;138.594;2023-04-27T11:22:54;100708.47;;;22.24;58.25
53635;BME280;39542;-34.932;138.594;2023-04-27T11:23:30;100707.16;;;22.22;58.29
53635;BME280;39542;-34.932;138.594;2023-04-27T11:24:07;100706.08;;;22.21;58.30
53635;BME280;39542;-34.932;138.594;2023-04-27T11:24:48;100710.37;;;22.20;58.36
53635;BME280;39542;-34.932;138.594;2023-04-27T11:25:28;100709.48;;;22.22;58.36
53635;BME280;39542;-34.932;138.594;2023-04-27T11:26:10;100711.85;;;22.21;58.39
53635;BME280;39542;-34.932;138.594;2023-04-27T11:26:52;100713.64;;;22.21;58.40
53635;BME280;39542;-34.932;138.594;2023-04-27T11:27:37;100716.03;;;22.23;58.48
53635;BME280;39542;-34.932;138.594;2023-04-27T11:28:18;100718.20;;;22.20;58.52
53635;BME280;39542;-34.932;138.594;2023-04-27T11:29:00;100719.68;;;22.20;58.54
53635;BME280;39542;-34.932;138.594;2023-04-27T11:29:40;100718.47;;;22.20;58.54
53635;BME280;39542;-34.932;138.594;2023-04-27T11:30:24;100715.77;;;22.22;58.45
53635;BME280;39542;-34.932;138.594;2023-04-27T11:30:59;100718.57;;;22.21;58.52
53635;BME280;39542;-34.932;138.594;2023-04-27T11:31:46;100719.49;;;22.22;58.52
53635;BME280;39542;-34.932;138.594;2023-04-27T11:32:23;100717.68;;;22.22;58.60
53635;BME280;39542;-34.932;138.594;2023-04-27T11:33:06;100718.45;;;22.22;58.61
53635;BME280;39542;-34.932;138.594;2023-04-27T11:33:48;100719.58;;;22.21;58.76
53635;BME280;39542;-34.932;138.594;2023-04-27T11:34:27;100722.07;;;22.22;58.75
53635;BME280;39542;-34.932;138.594;2023-04-27T11:35:02;100720.56;;;22.22;58.72
53635;BME280;39542;-34.932;138.594;2023-04-27T11:35:39;100722.32;;;22.21;58.88
53635;BME280;39542;-34.932;138.594;2023-04-27T11:36:31;100720.98;;;22.21;58.78
53635;BME280;39542;-34.932;138.594;2023-04-27T11:37:06;100721.75;;;22.21;58.78
53635;BME280;39542;-34.932;138.594;2023-04-27T11:37:41;100723.37;;;22.18;58.93
53635;BME280;39542;-34.932;138.594;2023-04-27T11:38:18;100725.18;;;22.18;58.95
53635;BME280;39542;-34.932;138.594;2023-04-27T11:38:58;100724.49;;;22.21;58.84
53635;BME280;39542;-34.932;138.594;2023-04-27T11:39:35;100725.15;;;22.22;58.86
53635;BME280;39542;-34.932;138.594;2023-04-27T11:40:12;100726.27;;;22.22;58.82
53635;BME280;39542;-34.932;138.594;2023-04-27T11:40:57;100728.15;;;22.21;58.89
53635;BME280;39542;-34.932;138.594;2023-04-27T11:41:36;100728.02;;;22.22;58.87
53635;BME280;39542;-34.932;138.594;2023-04-27T11:42:27;100729.14;;;22.24;58.86
53635;BME280;39542;-34.932;138.594;2023-04-27T11:43:02;100727.97;;;22.22;58.86
53635;BME280;39542;-34.932;138.594;2023-04-27T11:43:42;100726.93;;;22.21;58.91
53635;BME280;39542;-34.932;138.594;2023-04-27T11:44:17;100727.89;;;22.21;58.92
53635;BME280;39542;-34.932;138.594;2023-04-27T11:44:57;100728.59;;;22.22;58.90
53635;BME280;39542;-34.932;138.594;2023-04-27T11:45:33;100730.00;;;22.23;58.83
53635;BME280;39542;-34.932;138.594;2023-04-27T11:46:09;100730.74;;;22.22;58.88
53635;BME280;39542;-34.932;138.594;2023-04-27T11:46:47;100732.19;;;22.23;58.88
53635;BME280;39542;-34.932;138.594;2023-04-27T11:47:25;100730.86;;;22.21;58.95
53635;BME280;39542;-34.932;138.594;2023-04-27T11:48:00;100730.86;;;22.22;58.95
53635;BME280;39542;-34.932;138.594;2023-04-27T11:48:38;100733.22;;;22.22;58.89
53635;BME280;39542;-34.932;138.594;2023-04-27T11:49:13;100732.79;;;22.21;58.90
53635;BME280;39542;-34.932;138.594;2023-04-27T11:49:51;100730.19;;;22.19;58.95
53635;BME280;39542;-34.932;138.594;2023-04-27T11:50:26;100726.62;;;22.22;58.91
53635;BME280;39542;-34.932;138.594;2023-04-27T11:51:01;100724.00;;;22.23;58.90
53635;BME280;39542;-34.932;138.594;2023-04-27T11:51:38;100721.45;;;22.24;58.89
53635;BME280;39542;-34.932;138.594;2023-04-27T11:52:14;100721.16;;;22.25;58.89
53635;BME280;39542;-34.932;138.594;2023-04-27T11:52:53;100723.30;;;22.24;58.85
53635;BME280;39542;-34.932;138.594;2023-04-27T11:53:36;100723.51;;;22.23;58.85
53635;BME280;39542;-34.932;138.594;2023-04-27T11:54:12;100726.98;;;22.20;58.87
53635;BME280;39542;-34.932;138.594;2023-04-27T11:54:52;100729.08;;;22.22;58.87
53635;BME280;39542;-34.932;138.594;2023-04-27T11:55:26;100725.60;;;22.24;58.85
53635;BME280;39542;-34.932;138.594;2023-04-27T11:56:03;100727.73;;;22.25;58.83
53635;BME280;39542;-34.932;138.594;2023-04-27T11:56:41;100727.94;;;22.24;58.85
53635;BME280;39542;-34.932;138.594;2023-04-27T11:57:16;100726.12;;;22.23;58.87
53635;BME280;39542;-34.932;138.594;2023-04-27T11:57:57;100730.33;;;22.22;58.90
53635;BME280;39542;-34.932;138.594;2023-04-27T11:58:36;100729.42;;;22.22;58.86
53635;BME280;39542;-34.932;138.594;2023-04-27T11:59:21;100729.97;;;22.24;58.83
53635;BME280;39542;-34.932;138.594;2023-04-27T11:59:57;100728.08;;;22.22;58.87
53635;BME280;39542;-34.932;138.594;2023-04-27T12:00:32;100728.25;;;22.21;58.86
53635;BME280;39542;-34.932;138.594;2023-04-27T12:01:07;100725.31;;;22.22;58.87
53635;BME280;39542;-34.932;138.594;2023-04-27T12:01:42;100726.39;;;22.21;58.89
53635;BME280;39542;-34.932;138.594;2023-04-27T12:02:17;100727.59;;;22.19;58.97
53635;BME280;39542;-34.932;138.594;2023-04-27T12:02:51;100725.54;;;22.21;58.97
53635;BME280;39542;-34.932;138.594;2023-04-27T12:03:27;100727.44;;;22.23;58.86
53635;BME280;39542;-34.932;138.594;2023-04-27T12:04:03;100726.27;;;22.23;58.94
53635;BME280;39542;-34.932;138.594;2023-04-27T12:04:38;100728.54;;;22.23;58.90
53635;BME280;39542;-34.932;138.594;2023-04-27T12:05:13;100728.59;;;22.25;58.81
53635;BME280;39542;-34.932;138.594;2023-04-27T12:05:51;100729.84;;;22.23;58.93
53635;BME280;39542;-34.932;138.594;2023-04-27T12:06:27;100731.40;;;22.24;58.87
53635;BME280;39542;-34.932;138.594;2023-04-27T12:07:02;100732.00;;;22.25;58.89
53635;BME280;39542;-34.932;138.594;2023-04-27T12:07:37;100730.17;;;22.23;58.92
53635;BME280;39542;-34.932;138.594;2023-04-27T12:08:13;100729.67;;;22.22;59.01
53635;BME280;39542;-34.932;138.594;2023-04-27T12:08:47;100731.19;;;22.21;58.97
53635;BME280;39542;-34.932;138.594;2023-04-27T12:09:22;100729.01;;;22.23;58.95
53635;BME280;39542;-34.932;138.594;2023-04-27T12:09:56;100731.23;;;22.22;58.95
53635;BME280;39542;-34.932;138.594;2023-04-27T12:10:31;100729.62;;;22.23;58.95
53635;BME280;39542;-34.932;138.594;2023-04-27T12:11:05;100733.15;;;22.23;58.91
53635;BME280;39542;-34.932;138.594;2023-04-27T12:11:40;100732.39;;;22.23;58.91
53635;BME280;39542;-34.932;138.594;2023-04-27T12:12:15;100734.54;;;22.23;58.92
53635;BME280;39542;-34.932;138.594;2023-04-27T12:12:49;100734.52;;;22.19;59.01
53635;BME280;39542;-34.932;138.594;2023-04-27T12:13:25;100733.82;;;22.20;58.98
53635;BME280;39542;-34.932;138.594;2023-04-27T12:14:00;100733.65;;;22.22;59.08
53635;BME280;39542;-34.932;138.594;2023-04-27T12:14:35;100733.55;;;22.22;59.12
53635;BME280;39542;-34.932;138.594;2023-04-27T12:15:11;100733.18;;;22.23;59.11
53635;BME280;39542;-34.932;138.594;2023-04-27T12:15:45;100734.03;;;22.24;59.09
53635;BME280;39542;-34.932;138.594;2023-04-27T12:16:20;100734.79;;;22.21;59.10
53635;BME280;39542;-34.932;138.594;2023-04-27T12:16:54;100735.94;;;22.23;59.09
53635;BME280;39542;-34.932;138.594;2023-04-27T12:17:29;100738.01;;;22.23;59.12
53635;BME280;39542;-34.932;138.594;2023-04-27T12:18:03;100736.04;;;22.23;59.12
53635;BME280;39542;-34.932;138.594;2023-04-27T12:18:37;100736.12;;;22.20;59.26
53635;BME280;39542;-34.932;138.594;2023-04-27T12:19:12;100738.75;;;22.21;59.29
53635;BME280;39542;-34.932;138.594;2023-04-27T12:19:47;100737.23;;;22.23;59.20
53635;BME280;39542;-34.932;138.594;2023-04-27T12:20:21;100737.97;;;22.24;59.21
53635;BME280;39542;-34.932;138.594;2023-04-27T12:20:56;100735.75;;;22.25;59.29
53635;BME280;39542;-34.932;138.594;2023-04-27T12:21:30;100737.92;;;22.25;59.24
53635;BME280;39542;-34.932;138.594;2023-04-27T12:22:05;100736.75;;;22.26;59.32
53635;BME280;39542;-34.932;138.594;2023-04-27T12:22:41;100740.13;;;22.26;59.28
53635;BME280;39542;-34.932;138.594;2023-04-27T12:23:16;100738.44;;;22.26;59.26
53635;BME280;39542;-34.932;138.594;2023-04-27T12:23:51;100739.51;;;22.26;59.32
53635;BME280;39542;-34.932;138.594;2023-04-27T12:24:26;100738.94;;;22.26;59.33
53635;BME280;39542;-34.932;138.594;2023-04-27T12:25:01;100739.07;;;22.27;59.32
53635;BME280;39542;-34.932;138.594;2023-04-27T12:25:35;100740.89;;;22.27;59.29
53635;BME280;39542;-34.932;138.594;2023-04-27T12:26:10;100739.08;;;22.27;59.25
53635;BME280;39542;-34.932;138.594;2023-04-27T12:26:45;100739.49;;;22.27;59.29
53635;BME280;39542;-34.932;138.594;2023-04-27T12:27:19;100740.96;;;22.27;59.37
53635;BME280;39542;-34.932;138.594;2023-04-27T12:27:54;100735.83;;;22.26;59.35
53635;BME280;39542;-34.932;138.594;2023-04-27T12:28:28;100739.19;;;22.26;59.39
53635;BME280;39542;-34.932;138.594;2023-04-27T12:29:03;100736.22;;;22.26;59.30
53635;BME280;39542;-34.932;138.594;2023-04-27T12:29:37;100735.69;;;22.25;59.31
53635;BME280;39542;-34.932;138.594;2023-04-27T12:30:15;100736.27;;;22.26;59.30
53635;BME280;39542;-34.932;138.594;2023-04-27T12:30:49;100734.54;;;22.26;59.33
53635;BME280;39542;-34.932;138.594;2023-04-27T12:31:24;100736.73;;;22.24;59.36
53635;BME280;39542;-34.932;138.594;2023-04-27T12:31:59;100738.58;;;22.23;59.37
53635;BME280;39542;-34.932;138.594;2023-04-27T12:32:34;100738.17;;;22.24;59.35
53635;BME280;39542;-34.932;138.594;2023-04-27T12:33:08;100737.71;;;22.21;59.36
53635;BME280;39542;-34.932;138.594;2023-04-27T12:33:43;100741.41;;;22.22;59.38
53635;BME280;39542;-34.932;138.594;2023-04-27T12:34:17;100741.30;;;22.24;59.33
53635;BME280;39542;-34.932;138.594;2023-04-27T12:34:52;100739.20;;;22.24;59.32
53635;BME280;39542;-34.932;138.594;2023-04-27T12:35:27;100741.55;;;22.22;59.38
53635;BME280;39542;-34.932;138.594;2023-04-27T12:36:01;100741.02;;;22.24;59.27
53635;BME280;39542;-34.932;138.594;2023-04-27T12:36:36;100741.37;;;22.23;59.32
53635;BME280;39542;-34.932;138.594;2023-04-27T12:37:13;100741.96;;;22.23;59.35
53635;BME280;39542;-34.932;138.594;2023-04-27T12:37:50;100741.20;;;22.24;59.22
53635;BME280;39542;-34.932;138.594;2023-04-27T12:38:25;100742.10;;;22.24;59.32
53635;BME280;39542;-34.932;138.594;2023-04-27T12:39:12;100739.66;;;22.26;59.32
53635;BME280;39542;-34.932;138.594;2023-04-27T22:57:25;100762.92;;;20.40;61.62
53635;BME280;39542;-34.932;138.594;2023-04-27T23:01:33;100768.92;;;20.37;61.44
53635;BME280;39542;-34.932;138.594;2023-04-27T23:02:08;100771.12;;;20.38;61.25
53635;BME280;39542;-34.932;138.594;2023-04-27T23:03:45;100772.71;;;20.58;60.68
53635;BME280;39542;-34.932;138.594;2023-04-27T23:04:50;100775.32;;;20.75;60.23
53635;BME280;39542;-34.932;138.594;2023-04-27T23:05:25;100776.74;;;20.81;60.05
53635;BME280;39542;-34.932;138.594;2023-04-27T23:05:59;100779.76;;;20.84;59.83
53635;BME280;39542;-34.932;138.594;2023-04-27T23:06:33;100777.56;;;20.83;59.90
53635;BME280;39542;-34.932;138.594;2023-04-27T23:07:08;100777.99;;;20.79;60.01
53635;BME280;39542;-34.932;138.594;2023-04-27T23:07:42;100779.64;;;20.75;60.13
53635;BME280;39542;-34.932;138.594;2023-04-27T23:08:16;100781.05;;;20.70;60.23
53635;BME280;39542;-34.932;138.594;2023-04-27T23:08:50;100786.12;;;20.67;60.28
53635;BME280;39542;-34.932;138.594;2023-04-27T23:09:24;100787.96;;;20.63;60.36
53635;BME280;39542;-34.932;138.594;2023-04-27T23:09:59;100788.89;;;20.61;60.36
53635;BME280;39542;-34.932;138.594;2023-04-27T23:10:33;100786.46;;;20.60;60.28
53635;BME280;39542;-34.932;138.594;2023-04-27T23:11:08;100786.94;;;20.56;60.30
53635;BME280;39542;-34.932;138.594;2023-04-27T23:11:42;100787.43;;;20.54;60.27
53635;BME280;39542;-34.932;138.594;2023-04-27T23:12:17;100791.27;;;20.53;60.30
53635;BME280;39542;-34.932;138.594;2023-04-27T23:12:51;100788.49;;;20.54;60.35
53635;BME280;39542;-34.932;138.594;2023-04-27T23:13:25;100791.72;;;20.50;60.42
53635;BME280;39542;-34.932;138.594;2023-04-27T23:13:59;100792.59;;;20.50;60.47
53635;BME280;39542;-34.932;138.594;2023-04-27T23:14:34;100796.10;;;20.49;60.47
53635;BME280;39542;-34.932;138.594;2023-04-27T23:15:08;100795.96;;;20.55;60.50
53635;BME280;39542;-34.932;138.594;2023-04-27T23:15:43;100800.50;;;20.56;60.52
53635;BME280;39542;-34.932;138.594;2023-04-27T23:16:19;100804.47;;;20.55;60.68
53635;BME280;39542;-34.932;138.594;2023-04-27T23:16:53;100801.51;;;20.56;60.55
53635;BME280;39542;-34.932;138.594;2023-04-27T23:17:27;100805.11;;;20.57;60.39
53635;BME280;39542;-34.932;138.594;2023-04-27T23:18:02;100804.44;;;20.56;60.43
53635;BME280;39542;-34.932;138.594;2023-04-27T23:18:36;100805.82;;;20.56;60.36
53635;BME280;39542;-34.932;138.594;2023-04-27T23:19:10;100806.17;;;20.52;60.24
53635;BME280;39542;-34.932;138.594;2023-04-27T23:19:44;100807.00;;;20.54;60.22
53635;BME280;39542;-34.932;138.594;2023-04-27T23:20:19;100810.44;;;20.57;60.34
53635;BME280;39542;-34.932;138.594;2023-04-27T23:20:55;100809.00;;;20.59;60.36
53635;BME280;39542;-34.932;138.594;2023-04-27T23:21:29;100809.74;;;20.60;60.43
53635;BME280;39542;-34.932;138.594;2023-04-27T23:22:03;100810.62;;;20.63;60.34
53635;BME280;39542;-34.932;138.594;2023-04-27T23:22:37;100812.41;;;20.64;60.31
53635;BME280;39542;-34.932;138.594;2023-04-27T23:23:12;100811.78;;;20.62;60.34
53635;BME280;39542;-34.932;138.594;2023-04-27T23:23:46;100814.17;;;20.67;60.35
53635;BME280;39542;-34.932;138.594;2023-04-27T23:24:20;100816.73;;;20.66;60.46
53635;BME280;39542;-34.932;138.594;2023-04-27T23:24:54;100814.80;;;20.67;60.53
53635;BME280;39542;-34.932;138.594;2023-04-27T23:25:30;100816.23;;;20.67;60.54
53635;BME280;39542;-34.932;138.594;2023-04-27T23:26:10;100817.60;;;20.67;60.58
53635;BME280;39542;-34.932;138.594;2023-04-27T23:26:45;100815.84;;;20.67;60.70
53635;BME280;39542;-34.932;138.594;2023-04-27T23:27:19;100823.59;;;20.68;60.63
53635;BME280;39542;-34.932;138.594;2023-04-27T23:27:54;100824.71;;;20.70;60.60
53635;BME280;39542;-34.932;138.594;2023-04-27T23:28:28;100824.88;;;20.69;60.58
53635;BME280;39542;-34.932;138.594;2023-04-27T23:29:02;100825.43;;;20.71;60.63
53635;BME280;39542;-34.932;138.594;2023-04-27T23:29:37;100820.32;;;20.74;60.60
53635;BME280;39542;-34.932;138.594;2023-04-27T23:30:11;100823.86;;;20.74;60.60
53635;BME280;39542;-34.932;138.594;2023-04-27T23:30:52;100825.38;;;20.75;60.57
53635;BME280;39542;-34.932;138.594;2023-04-27T23:31:27;100827.19;;;20.76;60.51
53635;BME280;39542;-34.932;138.594;2023-04-27T23:32:02;100829.25;;;20.74;60.60
53635;BME280;39542;-34.932;138.594;2023-04-27T23:32:37;100827.89;;;20.75;60.56
53635;BME280;39542;-34.932;138.594;2023-04-27T23:33:11;100826.96;;;20.77;60.55
53635;BME280;39542;-34.932;138.594;2023-04-27T23:33:46;100829.14;;;20.77;60.51
53635;BME280;39542;-34.932;138.594;2023-04-27T23:34:20;100829.92;;;20.75;60.54
53635;BME280;39542;-34.932;138.594;2023-04-27T23:34:54;100829.05;;;20.78;60.53
53635;BME280;39542;-34.932;138.594;2023-04-27T23:35:29;100829.34;;;20.78;60.54
53635;BME280;39542;-34.932;138.594;2023-04-27T23:36:03;100830.95;;;20.78;60.60
53635;BME280;39542;-34.932;138.594;2023-04-27T23:36:38;100830.76;;;20.78;60.60
53635;BME280;39542;-34.932;138.594;2023-04-27T23:37:12;100833.79;;;20.81;60.52
53635;BME280;39542;-34.932;138.594;2023-04-27T23:37:46;100830.73;;;20.79;60.63
53635;BME280;39542;-34.932;138.594;2023-04-27T23:38:20;100830.35;;;20.79;60.63
53635;BME280;39542;-34.932;138.594;2023-04-27T23:38:55;100830.02;;;20.81;60.58
53635;BME280;39542;-34.932;138.594;2023-04-27T23:39:29;100830.96;;;20.83;60.54
53635;BME280;39542;-34.932;138.594;2023-04-27T23:40:04;100831.91;;;20.85;60.49
53635;BME280;39542;-34.932;138.594;2023-04-27T23:40:39;100832.58;;;20.85;60.52
53635;BME280;39542;-34.932;138.594;2023-04-27T23:41:13;100827.86;;;20.84;60.54
53635;BME280;39542;-34.932;138.594;2023-04-27T23:41:47;100832.06;;;20.86;60.50
53635;BME280;39542;-34.932;138.594;2023-04-27T23:42:21;100834.78;;;20.86;60.48
53635;BME280;39542;-34.932;138.594;2023-04-27T23:42:55;100831.36;;;20.85;60.61
53635;BME280;39542;-34.932;138.594;2023-04-27T23:43:30;100828.26;;;20.83;60.61
53635;BME280;39542;-34.932;138.594;2023-04-27T23:44:05;100829.37;;;20.82;60.65
53635;BME280;39542;-34.932;138.594;2023-04-27T23:44:39;100827.68;;;20.85;60.55
53635;BME280;39542;-34.932;138.594;2023-04-27T23:45:14;100828.60;;;20.86;60.54
53635;BME280;39542;-34.932;138.594;2023-04-27T23:45:49;100827.55;;;20.86;60.56
53635;BME280;39542;-34.932;138.594;2023-04-27T23:46:24;100826.22;;;20.88;60.51
53635;BME280;39542;-34.932;138.594;2023-04-27T23:46:58;100827.92;;;20.88;60.48
53635;BME280;39542;-34.932;138.594;2023-04-27T23:47:32;100829.12;;;20.89;60.48
53635;BME280;39542;-34.932;138.594;2023-04-27T23:48:07;100827.23;;;20.87;60.54
53635;BME280;39542;-34.932;138.594;2023-04-27T23:48:41;100832.18;;;20.88;60.52
53635;BME280;39542;-34.932;138.594;2023-04-27T23:49:15;100833.31;;;20.90;60.51
53635;BME280;39542;-34.932;138.594;2023-04-27T23:49:50;100829.22;;;20.89;60.48
53635;BME280;39542;-34.932;138.594;2023-04-27T23:50:24;100828.91;;;20.91;60.47
53635;BME280;39542;-34.932;138.594;2023-04-27T23:51:02;100829.21;;;20.92;60.43
53635;BME280;39542;-34.932;138.594;2023-04-27T23:51:38;100829.89;;;20.92;60.47
53635;BME280;39542;-34.932;138.594;2023-04-27T23:52:12;100834.01;;;20.91;60.49
53635;BME280;39542;-34.932;138.594;2023-04-27T23:52:47;100832.45;;;20.94;60.47
53635;BME280;39542;-34.932;138.594;2023-04-27T23:53:21;100833.97;;;20.96;60.48
53635;BME280;39542;-34.932;138.594;2023-04-27T23:53:55;100829.22;;;20.96;60.48
53635;BME280;39542;-34.932;138.594;2023-04-27T23:54:31;100828.95;;;20.94;60.50
53635;BME280;39542;-34.932;138.594;2023-04-27T23:55:06;100825.74;;;20.93;60.54
53635;BME280;39542;-34.932;138.594;2023-04-27T23:55:40;100827.83;;;20.93;60.50
53635;BME280;39542;-34.932;138.594;2023-04-27T23:56:17;100825.83;;;20.93;60.48
53635;BME280;39542;-34.932;138.594;2023-04-27T23:56:52;100827.93;;;20.94;60.48
53635;BME280;39542;-34.932;138.594;2023-04-27T23:57:26;100825.31;;;20.93;60.52
53635;BME280;39542;-34.932;138.594;2023-04-27T23:58:00;100827.88;;;20.95;60.58
53635;BME280;39542;-34.932;138.594;2023-04-27T23:58:35;100830.93;;;20.96;60.50
53635;BME280;39542;-34.932;138.594;2023-04-27T23:59:09;100830.04;;;20.99;60.41
53635;BME280;39542;-34.932;138.594;2023-04-27T23:59:43;100829.90;;;20.96;60.38
